Time;durP1;ratioP1;P1;durP2;ratioP2;P2;SDS_P1;SDS_P2;PMS_P1;PMS_P2;Temp;Humidity;BMP_temperature;BMP_pressure;BME280_temperature;BME280_humidity;BME280_pressure;Samples;Min_cycle;Max_cycle;Signal;HPM_P1;HPM_P2
2021/04/29 00:02:20;;;;;;;15.80;13.43;;;13.30;99.90;;;;;;5076887;28;20425;-87
2021/04/29 00:04:46;;;;;;;13.57;12.20;;;13.20;99.90;;;;;;5062726;28;20844;-87
2021/04/29 00:07:12;;;;;;;13.97;12.10;;;13.20;99.90;;;;;;5062562;28;20433;-87
2021/04/29 00:09:39;;;;;;;15.13;13.57;;;13.30;99.90;;;;;;5064913;28;20444;-88
2021/04/29 00:12:07;;;;;;;12.47;11.23;;;13.20;99.90;;;;;;5061168;28;20492;-89
2021/04/29 00:14:33;;;;;;;9.70;8.80;;;13.20;99.90;;;;;;5054359;28;20993;-86
2021/04/29 00:17:01;;;;;;;13.43;12.20;;;13.10;99.90;;;;;;5049430;28;20595;-88
2021/04/29 00:19:28;;;;;;;13.67;11.07;;;13.10;99.90;;;;;;5047404;28;20831;-87
2021/04/29 00:21:54;;;;;;;12.37;10.47;;;13.10;99.90;;;;;;5037953;28;20460;-87
2021/04/29 00:24:20;;;;;;;12.13;9.57;;;13.10;99.90;;;;;;5038440;28;21016;-87
2021/04/29 00:26:47;;;;;;;15.17;12.83;;;13.10;99.90;;;;;;5040546;28;20484;-88
2021/04/29 00:29:13;;;;;;;9.90;8.43;;;13.20;99.90;;;;;;5071383;28;20434;-86
2021/04/29 00:31:39;;;;;;;6.13;5.50;;;13.20;99.90;;;;;;5080943;28;20417;-86
2021/04/29 00:34:06;;;;;;;6.70;5.17;;;13.20;99.90;;;;;;5081009;28;20523;-86
2021/04/29 00:36:33;;;;;;;6.03;4.87;;;13.20;99.90;;;;;;5078831;28;20519;-85
2021/04/29 00:38:59;;;;;;;6.27;4.97;;;13.30;99.90;;;;;;5080242;28;20464;-86
2021/04/29 00:41:25;;;;;;;6.10;5.07;;;13.30;99.90;;;;;;5069285;28;20456;-87
2021/04/29 00:43:51;;;;;;;6.20;5.13;;;13.30;99.90;;;;;;5057104;28;20442;-86
2021/04/29 00:46:18;;;;;;;5.93;4.93;;;13.30;99.90;;;;;;5077893;28;20532;-86
2021/04/29 00:48:45;;;;;;;5.73;5.23;;;13.30;99.90;;;;;;5079430;28;20445;-87
2021/04/29 00:51:14;;;;;;;6.83;5.43;;;13.30;99.90;;;;;;5078504;28;20507;-87
2021/04/29 00:53:42;;;;;;;6.53;5.33;;;13.30;99.90;;;;;;5077596;28;20451;-87
2021/04/29 00:56:09;;;;;;;6.30;5.40;;;13.30;99.90;;;;;;5063692;28;20430;-88
2021/04/29 00:58:35;;;;;;;7.23;5.67;;;13.30;99.90;;;;;;5058389;28;20451;-88
2021/04/29 01:01:03;;;;;;;6.10;5.17;;;13.30;99.90;;;;;;5067713;28;20444;-88
2021/04/29 01:03:33;;;;;;;6.47;5.00;;;13.40;99.90;;;;;;5065237;28;20459;-88
2021/04/29 01:06:05;;;;;;;5.30;4.80;;;13.40;99.90;;;;;;5066913;28;20481;-88
2021/04/29 01:08:40;;;;;;;10.00;4.90;;;13.40;99.90;;;;;;5067484;28;20440;-88
2021/04/29 01:11:13;;;;;;;6.83;4.90;;;13.50;99.90;;;;;;5075377;28;20428;-87
2021/04/29 01:13:43;;;;;;;6.63;4.27;;;13.50;99.90;;;;;;5070065;28;20447;-87
2021/04/29 01:16:11;;;;;;;5.47;4.20;;;13.50;99.90;;;;;;5061111;28;20498;-88
2021/04/29 01:18:39;;;;;;;4.60;4.20;;;13.50;99.90;;;;;;5060043;28;20499;-87
2021/04/29 01:21:11;;;;;;;5.93;3.90;;;13.60;99.90;;;;;;5065498;28;20452;-87
2021/04/29 01:23:48;;;;;;;5.13;4.33;;;13.60;99.90;;;;;;5051168;28;20449;-89
2021/04/29 01:26:19;;;;;;;7.10;4.40;;;13.60;99.90;;;;;;5043176;28;20857;-85
2021/04/29 01:28:47;;;;;;;5.63;5.13;;;13.60;99.90;;;;;;5041402;28;20449;-88
2021/04/29 01:31:14;;;;;;;5.83;4.53;;;13.60;99.90;;;;;;5043985;28;20460;-88
2021/04/29 01:33:41;;;;;;;7.20;4.87;;;13.60;99.90;;;;;;5037425;28;20437;-87
2021/04/29 01:36:08;;;;;;;5.43;4.93;;;13.60;99.90;;;;;;5040901;28;20869;-89
2021/04/29 01:38:36;;;;;;;11.00;5.63;;;13.70;99.90;;;;;;5055794;28;20507;-87
2021/04/29 01:41:03;;;;;;;7.33;4.77;;;13.70;99.90;;;;;;5039778;28;20457;-87
2021/04/29 01:43:30;;;;;;;5.23;4.63;;;13.70;99.90;;;;;;5038453;28;20437;-88
2021/04/29 01:45:58;;;;;;;6.50;5.87;;;13.70;99.90;;;;;;5036733;28;20477;-87
2021/04/29 01:48:24;;;;;;;7.90;5.77;;;13.70;99.90;;;;;;5038487;28;20456;-88
2021/04/29 01:50:50;;;;;;;6.30;4.70;;;13.70;99.90;;;;;;5058610;28;20467;-87
2021/04/29 01:53:17;;;;;;;5.80;5.00;;;13.70;99.90;;;;;;5052412;28;20492;-87
2021/04/29 01:55:44;;;;;;;6.07;5.47;;;13.70;99.90;;;;;;5036271;28;20520;-87
2021/04/29 01:58:10;;;;;;;7.33;5.63;;;13.80;99.90;;;;;;5047127;28;20437;-86
2021/04/29 02:00:37;;;;;;;5.30;4.80;;;13.80;99.90;;;;;;5047208;28;20446;-88
2021/04/29 02:03:04;;;;;;;6.10;4.90;;;13.80;99.90;;;;;;5041208;28;20437;-87
2021/04/29 02:05:30;;;;;;;5.20;4.33;;;13.70;99.90;;;;;;5042228;28;20542;-87
2021/04/29 02:07:57;;;;;;;7.03;5.80;;;13.80;99.90;;;;;;5064380;28;20440;-87
2021/04/29 02:10:24;;;;;;;6.10;4.47;;;13.80;99.90;;;;;;5067003;28;20534;-87
2021/04/29 02:12:54;;;;;;;5.57;5.07;;;13.70;99.90;;;;;;5058430;28;20448;-87
2021/04/29 02:15:26;;;;;;;6.40;5.43;;;13.80;99.90;;;;;;5057002;28;20980;-87
2021/04/29 02:17:58;;;;;;;6.10;5.33;;;13.90;99.90;;;;;;5063509;28;20455;-88
2021/04/29 02:20:27;;;;;;;4.13;3.73;;;13.70;99.90;;;;;;5060996;28;20514;-87
2021/04/29 02:22:54;;;;;;;4.50;3.90;;;13.70;99.90;;;;;;5038497;28;21002;-88
2021/04/29 02:25:24;;;;;;;3.23;2.83;;;13.70;99.90;;;;;;5053694;28;20476;-88
2021/04/29 02:27:51;;;;;;;3.00;2.30;;;13.80;99.90;;;;;;5039969;28;20443;-88
2021/04/29 02:30:18;;;;;;;3.30;2.40;;;13.80;99.90;;;;;;5043013;28;20900;-88
2021/04/29 02:32:45;;;;;;;3.07;2.43;;;13.80;99.90;;;;;;5038359;28;20445;-87
2021/04/29 02:35:13;;;;;;;2.07;1.63;;;13.80;99.90;;;;;;5039311;28;20463;-88
2021/04/29 02:37:42;;;;;;;2.03;1.70;;;13.90;99.90;;;;;;5055379;28;20454;-86
2021/04/29 02:40:11;;;;;;;1.37;1.17;;;13.90;99.90;;;;;;5063939;28;20477;-87
2021/04/29 02:42:38;;;;;;;1.40;1.27;;;13.90;99.90;;;;;;5060256;28;20432;-88
2021/04/29 02:45:08;;;;;;;1.43;1.30;;;13.90;99.90;;;;;;5054950;28;20476;-88
2021/04/29 02:47:34;;;;;;;1.47;1.23;;;13.90;99.90;;;;;;5044962;28;20824;-86
2021/04/29 02:50:01;;;;;;;1.30;1.20;;;13.90;99.90;;;;;;5047423;28;20451;-87
2021/04/29 02:52:27;;;;;;;1.33;1.20;;;13.90;99.90;;;;;;5057062;28;20463;-88
2021/04/29 02:54:55;;;;;;;1.30;1.20;;;14.00;99.90;;;;;;5055598;28;20507;-88
2021/04/29 02:57:21;;;;;;;1.83;0.93;;;14.00;99.90;;;;;;5066108;28;20428;-88
2021/04/29 02:59:48;;;;;;;1.37;1.20;;;14.00;99.90;;;;;;5072129;28;20443;-87
2021/04/29 03:02:15;;;;;;;2.23;2.00;;;14.00;99.90;;;;;;5063472;28;20450;-88
2021/04/29 03:04:42;;;;;;;1.60;1.20;;;13.90;99.90;;;;;;5055504;28;20479;-88
2021/04/29 03:07:08;;;;;;;1.90;1.50;;;13.70;99.90;;;;;;5044114;28;20479;-87
2021/04/29 03:09:34;;;;;;;1.37;1.20;;;13.50;99.90;;;;;;5041437;28;20438;-86
2021/04/29 03:12:01;;;;;;;2.00;1.57;;;13.40;99.90;;;;;;5043181;28;20446;-88
2021/04/29 03:14:28;;;;;;;1.60;1.40;;;13.30;99.90;;;;;;5046657;28;20848;-88
2021/04/29 03:16:54;;;;;;;2.03;1.50;;;13.20;99.90;;;;;;5046073;28;20929;-88
2021/04/29 03:19:21;;;;;;;1.30;1.20;;;13.20;99.90;;;;;;5047852;28;20449;-87
2021/04/29 03:21:47;;;;;;;1.53;1.20;;;13.10;99.90;;;;;;5061341;28;20460;-87
2021/04/29 03:24:13;;;;;;;2.13;1.30;;;13.10;99.90;;;;;;5072844;28;20499;-87
2021/04/29 03:26:40;;;;;;;0.97;0.80;;;13.10;99.90;;;;;;5066038;28;20829;-89
2021/04/29 03:29:07;;;;;;;2.27;1.47;;;13.10;99.90;;;;;;5065727;28;20455;-87
2021/04/29 03:31:34;;;;;;;0.90;0.87;;;13.00;99.90;;;;;;5062833;28;20448;-88
2021/04/29 03:34:00;;;;;;;1.53;1.27;;;13.00;99.90;;;;;;5061169;28;20476;-87
2021/04/29 03:36:26;;;;;;;1.43;1.10;;;12.90;99.90;;;;;;5062442;28;20445;-87
2021/04/29 03:38:53;;;;;;;1.40;1.00;;;12.90;99.90;;;;;;5060899;28;20520;-86
2021/04/29 03:41:19;;;;;;;1.30;1.20;;;12.90;99.90;;;;;;5065605;28;20445;-87
2021/04/29 03:43:45;;;;;;;0.93;0.83;;;12.80;99.90;;;;;;5076683;28;20444;-86
2021/04/29 03:46:15;;;;;;;1.53;1.07;;;12.80;99.90;;;;;;5068323;28;21003;-88
2021/04/29 03:48:41;;;;;;;1.53;1.20;;;12.70;99.90;;;;;;5065634;28;20424;-88
2021/04/29 03:51:08;;;;;;;1.30;0.97;;;12.60;99.90;;;;;;5063762;28;20441;-87
2021/04/29 03:53:34;;;;;;;1.27;0.83;;;12.60;99.90;;;;;;5055436;28;20445;-87
2021/04/29 03:56:00;;;;;;;1.00;0.73;;;12.60;99.90;;;;;;5044288;28;20449;-88
2021/04/29 03:58:32;;;;;;;1.03;0.80;;;12.70;99.90;;;;;;5049214;28;20449;-88
2021/04/29 04:00:59;;;;;;;1.20;1.00;;;12.60;99.90;;;;;;5061027;28;20442;-87
2021/04/29 04:03:32;;;;;;;1.10;0.80;;;12.60;99.90;;;;;;5072474;28;20525;-88
2021/04/29 04:05:59;;;;;;;0.97;0.90;;;12.60;99.90;;;;;;5063812;28;20515;-87
2021/04/29 04:08:25;;;;;;;1.17;0.70;;;12.50;99.90;;;;;;5063720;28;20544;-87
2021/04/29 04:10:51;;;;;;;0.97;0.70;;;12.50;99.90;;;;;;5071863;28;20535;-87
2021/04/29 04:13:18;;;;;;;1.73;0.90;;;12.50;99.90;;;;;;5075417;28;20503;-87
2021/04/29 04:15:44;;;;;;;0.63;0.50;;;12.50;99.90;;;;;;5066695;28;20555;-87
2021/04/29 04:18:11;;;;;;;1.10;0.73;;;12.50;99.90;;;;;;5056080;28;20430;-88
2021/04/29 04:20:38;;;;;;;0.77;0.77;;;12.40;99.90;;;;;;5041897;28;20880;-88
2021/04/29 04:23:05;;;;;;;1.57;1.37;;;12.40;99.90;;;;;;5042398;28;20456;-88
2021/04/29 04:25:38;;;;;;;1.17;0.80;;;12.50;99.90;;;;;;5050709;23;20555;-91
2021/04/29 04:28:04;;;;;;;3.63;0.90;;;12.50;99.90;;;;;;5037827;28;20433;-89
2021/04/29 04:30:31;;;;;;;1.07;0.50;;;12.40;99.90;;;;;;5046743;28;20454;-90
2021/04/29 04:36:32;;;;;;;1.20;0.97;;;12.40;99.90;;;;;;4956531;28;20447;-89
2021/04/29 04:41:57;;;;;;;0.70;0.70;;;12.40;99.90;;;;;;4957866;28;20425;-89
2021/04/29 05:13:57;;;;;;;;;;;;;;;;;;;;;
2021/04/29 05:26:24;;;;;;;1.00;0.90;;;14.30;99.90;;;;;;5000552;28;20487;-89
2021/04/29 05:29:15;;;;;;;2.07;1.00;;;14.50;99.90;;;;;;5018301;28;20467;-90
2021/04/29 05:32:00;;;;;;;1.63;1.20;;;14.40;99.90;;;;;;5000865;28;20849;-89
2021/04/29 05:34:56;;;;;;;1.17;1.07;;;14.30;99.90;;;;;;4999287;28;20475;-89
2021/04/29 05:38:00;;;;;;;2.30;1.47;;;14.00;99.90;;;;;;5126477;22;20478;-91
2021/04/29 05:43:37;;;;;;;1.60;1.10;;;13.80;99.90;;;;;;5012676;28;20879;-90
2021/04/29 05:46:36;;;;;;;;;;;;;;;;;;;;;
2021/04/29 05:49:09;;;;;;;1.50;1.27;;;13.60;99.90;;;;;;5044053;28;20448;-91
2021/04/29 05:51:52;;;;;;;2.30;1.20;;;13.60;99.90;;;;;;5053021;28;20458;-88
2021/04/29 05:57:36;;;;;;;1.97;1.63;;;13.60;99.90;;;;;;5014395;28;20433;-88
2021/04/29 06:00:17;;;;;;;2.30;1.40;;;13.70;99.90;;;;;;5043717;28;21007;-88
2021/04/29 06:03:14;;;;;;;;;;;;;;;;;;;;;
2021/04/29 06:06:06;;;;;;;2.80;1.63;;;13.70;99.90;;;;;;5017951;28;20482;-90
2021/04/29 06:08:41;;;;;;;3.30;1.70;;;13.50;97.50;;;;;;5054940;28;20449;-90
2021/04/29 06:11:33;;;;;;;1.60;1.50;;;13.50;98.30;;;;;;5055686;28;20437;-90
2021/04/29 06:14:07;;;;;;;1.60;1.40;;;13.60;98.20;;;;;;5039830;28;20461;-91
2021/04/29 06:19:42;;;;;;;2.13;1.73;;;13.80;99.00;;;;;;5034754;28;20507;-90
2021/04/29 06:22:35;;;;;;;1.30;1.20;;;14.00;98.40;;;;;;5036921;28;20466;-89
2021/04/29 06:25:07;;;;;;;1.60;1.50;;;14.10;97.70;;;;;;5035949;28;20975;-89
2021/04/29 06:27:48;;;;;;;1.93;1.83;;;14.20;97.40;;;;;;5035047;28;20814;-89
2021/04/29 06:30:40;;;;;;;2.37;1.40;;;14.60;97.30;;;;;;5035557;28;20509;-89
2021/04/29 06:33:25;;;;;;;1.10;1.00;;;15.10;95.10;;;;;;5035703;28;20465;-89
2021/04/29 06:36:13;;;;;;;1.50;1.30;;;15.80;94.40;;;;;;5034602;28;20469;-89
2021/04/29 06:42:08;;;;;;;3.00;1.60;;;16.20;91.70;;;;;;5004358;28;20450;-89
2021/04/29 06:54:01;;;;;;;3.50;2.67;;;17.50;88.70;;;;;;5033465;28;20444;-90
2021/04/29 07:12:25;;;;;;;3.27;2.50;;;20.40;74.60;;;;;;4954464;29;20458;-90
2021/04/29 07:15:03;;;;;;;2.67;2.40;;;20.80;70.50;;;;;;4974657;28;20535;-89
2021/04/29 07:17:30;;;;;;;3.97;2.50;;;19.90;68.80;;;;;;5051081;28;20417;-91
2021/04/29 07:19:56;;;;;;;4.70;3.10;;;18.60;72.00;;;;;;5052105;28;20583;-91
2021/04/29 07:22:22;;;;;;;2.90;2.40;;;17.50;76.10;;;;;;5042667;28;20489;-91
2021/04/29 07:24:50;;;;;;;3.00;2.53;;;17.20;78.70;;;;;;5039118;28;20491;-90
2021/04/29 07:27:16;;;;;;;2.63;2.43;;;17.10;81.70;;;;;;5037198;28;20473;-88
2021/04/29 07:29:42;;;;;;;3.23;2.80;;;17.20;81.70;;;;;;5036711;28;20453;-88
2021/04/29 07:32:09;;;;;;;4.93;2.30;;;17.40;81.20;;;;;;5036041;28;20452;-89
2021/04/29 07:34:35;;;;;;;1.97;1.87;;;17.60;80.30;;;;;;5036581;28;20473;-88
2021/04/29 07:37:03;;;;;;;3.20;2.83;;;18.20;79.10;;;;;;5018902;28;20546;-88
2021/04/29 07:39:30;;;;;;;3.73;3.03;;;18.90;77.90;;;;;;5019749;28;20504;-89
2021/04/29 07:41:57;;;;;;;3.73;2.77;;;20.50;75.30;;;;;;5027519;28;20476;-89
2021/04/29 07:44:24;;;;;;;3.77;3.47;;;21.10;70.00;;;;;;5039279;28;20829;-91
2021/04/29 07:46:51;;;;;;;3.40;2.70;;;20.50;68.10;;;;;;5044570;28;20449;-90
2021/04/29 07:49:17;;;;;;;3.17;2.87;;;20.70;70.50;;;;;;5060414;28;20502;-90
2021/04/29 07:51:44;;;;;;;3.10;2.80;;;21.30;69.60;;;;;;5052332;28;20807;-90
2021/04/29 07:54:13;;;;;;;3.87;3.40;;;21.80;65.90;;;;;;5038794;28;20444;-90
2021/04/29 07:56:40;;;;;;;3.30;3.00;;;22.60;63.40;;;;;;5039633;28;20498;-90
2021/04/29 07:59:07;;;;;;;3.60;3.30;;;22.40;59.50;;;;;;5037844;28;20499;-90
2021/04/29 08:01:34;;;;;;;3.90;3.20;;;22.00;61.10;;;;;;5039630;28;20444;-89
2021/04/29 08:04:01;;;;;;;3.00;2.80;;;21.90;60.80;;;;;;5041475;28;20449;-89
2021/04/29 08:06:28;;;;;;;3.40;3.10;;;21.50;62.20;;;;;;5039597;28;20516;-89
2021/04/29 08:08:55;;;;;;;3.40;2.80;;;21.90;63.00;;;;;;5037084;28;20523;-89
2021/04/29 08:11:22;;;;;;;3.30;3.00;;;21.50;62.30;;;;;;5037673;28;20509;-88
2021/04/29 08:13:49;;;;;;;4.77;3.10;;;21.60;63.70;;;;;;5039451;28;20467;-89
2021/04/29 08:16:16;;;;;;;5.77;3.80;;;21.90;60.70;;;;;;5038747;28;20563;-90
2021/04/29 08:18:44;;;;;;;3.87;3.47;;;22.60;60.70;;;;;;5038417;28;20483;-89
2021/04/29 08:21:10;;;;;;;5.40;3.80;;;22.80;58.80;;;;;;5037620;28;20468;-90
2021/04/29 08:23:37;;;;;;;5.50;3.40;;;22.50;57.60;;;;;;5038188;28;20844;-90
2021/04/29 08:26:04;;;;;;;4.87;4.37;;;22.00;56.60;;;;;;5038370;28;20951;-90
2021/04/29 08:28:30;;;;;;;4.10;3.70;;;21.80;56.50;;;;;;5037799;28;20558;-90
2021/04/29 08:30:57;;;;;;;4.17;3.27;;;21.90;57.00;;;;;;5045140;28;20477;-90
2021/04/29 08:33:25;;;;;;;4.00;3.70;;;21.20;57.70;;;;;;5059561;28;20435;-90
2021/04/29 08:35:52;;;;;;;4.00;3.60;;;20.50;60.90;;;;;;5055117;28;20494;-89
2021/04/29 08:38:19;;;;;;;4.97;3.20;;;19.80;61.10;;;;;;5051128;28;20476;-89
2021/04/29 08:40:46;;;;;;;4.90;4.40;;;19.70;62.10;;;;;;5059787;28;20453;-89
2021/04/29 08:43:13;;;;;;;3.80;3.50;;;19.60;62.30;;;;;;5045386;28;20450;-89
2021/04/29 08:45:44;;;;;;;6.57;4.47;;;19.80;62.40;;;;;;5044176;28;20536;-89
2021/04/29 08:48:11;;;;;;;3.40;3.10;;;20.50;63.20;;;;;;5052293;28;20453;-89
2021/04/29 08:50:39;;;;;;;4.13;3.73;;;21.50;59.60;;;;;;5058877;28;20462;-89
2021/04/29 08:53:06;;;;;;;4.93;4.37;;;22.40;58.40;;;;;;5058013;28;20504;-90
2021/04/29 08:55:36;;;;;;;4.67;4.20;;;22.20;57.00;;;;;;5060105;28;20478;-89
2021/04/29 08:58:03;;;;;;;4.33;3.37;;;21.40;57.10;;;;;;5056929;28;20440;-89
2021/04/29 09:00:30;;;;;;;3.90;3.60;;;21.50;57.70;;;;;;5057909;28;20442;-91
2021/04/29 09:02:57;;;;;;;5.70;3.80;;;21.00;58.50;;;;;;5056779;28;20483;-88
2021/04/29 09:05:28;;;;;;;4.70;4.30;;;20.30;58.30;;;;;;5058710;28;20521;-90
2021/04/29 09:08:01;;;;;;;4.20;3.80;;;19.90;59.50;;;;;;5059214;28;20441;-90
2021/04/29 09:10:30;;;;;;;8.37;4.90;;;19.80;60.00;;;;;;5058692;28;20453;-91
2021/04/29 09:12:59;;;;;;;3.97;3.57;;;19.20;60.30;;;;;;5059764;28;20530;-90
2021/04/29 09:15:29;;;;;;;5.80;4.50;;;18.60;62.50;;;;;;5059271;28;20454;-90
2021/04/29 09:18:06;;;;;;;5.50;4.40;;;18.30;65.10;;;;;;5058658;28;20946;-90
2021/04/29 09:43:41;;;;;;;5.37;4.80;;;16.10;84.90;;;;;;4853132;29;20501;-89
2021/04/29 10:10:26;;;;;;;5.77;5.23;;;14.50;97.30;;;;;;5013060;28;20501;-89
2021/04/29 10:12:59;;;;;;;3.73;3.43;;;16.30;95.40;;;;;;5054922;28;20466;-90
2021/04/29 10:15:37;;;;;;;5.10;4.00;;;17.70;90.10;;;;;;5051736;28;20544;-88
2021/04/29 10:18:22;;;;;;;5.43;4.63;;;18.20;87.50;;;;;;5030428;28;20466;-89
2021/04/29 10:21:07;;;;;;;4.30;3.90;;;18.40;83.50;;;;;;5046347;28;20445;-89
2021/04/29 10:23:38;;;;;;;4.60;4.20;;;18.60;83.30;;;;;;5038363;28;20556;-89
2021/04/29 10:26:16;;;;;;;4.37;3.83;;;19.00;83.20;;;;;;5036913;28;20483;-90
2021/04/29 10:29:25;;;;;;;4.30;3.50;;;19.00;82.00;;;;;;5039480;28;20491;-90
2021/04/29 10:32:28;;;;;;;4.73;3.83;;;18.30;79.80;;;;;;5043471;28;20480;-89
2021/04/29 10:35:01;;;;;;;3.80;3.40;;;17.90;83.20;;;;;;5015270;28;21148;-90
2021/04/29 10:37:36;;;;;;;4.70;4.30;;;17.60;81.40;;;;;;5019191;28;20524;-90
2021/04/29 10:43:53;;;;;;;4.50;4.10;;;18.50;82.80;;;;;;4982141;28;20443;-90
2021/04/29 10:50:24;;;;;;;3.73;3.40;;;18.40;78.80;;;;;;5027542;28;20517;-90
2021/04/29 10:53:39;;;;;;;3.50;3.03;;;18.60;79.80;;;;;;5041841;28;20969;-90
2021/04/29 10:56:59;;;;;;;;;;;;;;;;;;;;;
2021/04/29 11:03:08;;;;;;;4.70;4.20;;;22.10;72.00;;;;;;4984641;28;20450;-89
2021/04/29 11:06:03;;;;;;;5.43;3.77;;;23.20;67.30;;;;;;5042950;28;20468;-90
2021/04/29 11:09:06;;;;;;;3.50;3.20;;;23.30;65.60;;;;;;5054365;28;20449;-90
2021/04/29 11:17:49;;;;;;;;;;;;;;;;;;;;;
2021/04/29 11:20:58;;;;;;;3.30;3.00;;;20.00;60.80;;;;;;5044586;28;20516;-89
2021/04/29 11:24:05;;;;;;;3.20;2.67;;;19.60;61.80;;;;;;5057198;28;20410;-89
2021/04/29 11:26:44;;;;;;;3.63;2.63;;;19.00;63.30;;;;;;5019938;28;20482;-89
2021/04/29 11:29:20;;;;;;;3.37;2.93;;;19.90;63.30;;;;;;5058521;28;20448;-89
2021/04/29 11:31:56;;;;;;;4.17;2.70;;;21.50;59.50;;;;;;5061462;28;20438;-90
2021/04/29 11:34:40;;;;;;;2.50;2.13;;;22.60;56.80;;;;;;5055772;28;20984;-90
2021/04/29 11:37:12;;;;;;;3.17;2.53;;;22.10;55.00;;;;;;5048169;28;20474;-90
2021/04/29 11:39:53;;;;;;;2.43;2.17;;;21.50;55.20;;;;;;5046377;28;20461;-90
2021/04/29 11:42:56;;;;;;;3.40;3.10;;;21.40;55.70;;;;;;5046324;28;20492;-91
2021/04/29 11:45:29;;;;;;;2.90;1.90;;;21.20;54.90;;;;;;5043845;28;20472;-91
2021/04/29 11:48:02;;;;;;;2.40;2.20;;;20.50;56.00;;;;;;5045044;28;20485;-91
2021/04/29 11:50:33;;;;;;;2.40;2.20;;;19.80;57.20;;;;;;5043913;28;20453;-90
2021/04/29 11:53:22;;;;;;;2.73;2.13;;;19.20;58.80;;;;;;5045789;28;20533;-90
2021/04/29 13:33:48;;;;;;;3.63;3.33;;;18.20;60.90;;;;;;5520440;22;20500;-86
2021/04/29 13:58:08;;;;;;;;;;;;;;;;;;;;;
2021/04/29 14:42:35;;;;;;;3.40;2.10;;;20.20;59.10;;;;;;5055423;28;20446;-87
2021/04/29 14:45:11;;;;;;;2.47;2.27;;;20.60;58.00;;;;;;5055543;28;20454;-88
2021/04/29 14:47:53;;;;;;;3.30;2.67;;;21.00;56.90;;;;;;5061149;28;20487;-88
2021/04/29 14:50:44;;;;;;;2.50;2.03;;;21.10;56.50;;;;;;5056742;28;20460;-87
2021/04/29 14:53:37;;;;;;;4.03;2.57;;;21.80;55.90;;;;;;5043912;28;20500;-86
2021/04/29 14:56:27;;;;;;;3.00;2.00;;;22.50;54.80;;;;;;5056851;28;20483;-85
2021/04/29 14:59:21;;;;;;;2.53;2.33;;;23.00;53.90;;;;;;5058982;28;20559;-86
2021/04/29 15:02:14;;;;;;;3.07;2.40;;;22.40;53.90;;;;;;5061672;28;20541;-87
2021/04/29 15:04:40;;;;;;;2.57;2.37;;;21.50;55.70;;;;;;5058931;28;20481;-86
2021/04/29 15:07:08;;;;;;;2.13;1.93;;;20.90;56.70;;;;;;5059364;28;20488;-86
2021/04/29 15:09:34;;;;;;;3.83;2.40;;;20.70;56.20;;;;;;5060153;28;20448;-86
2021/04/29 15:12:01;;;;;;;3.80;2.20;;;20.50;55.30;;;;;;5068847;28;20456;-87
2021/04/29 15:14:28;;;;;;;4.13;1.83;;;20.10;55.50;;;;;;5071594;28;20454;-85
2021/04/29 15:16:55;;;;;;;3.97;1.70;;;19.90;55.20;;;;;;5066791;28;20465;-86
2021/04/29 15:19:21;;;;;;;2.10;1.77;;;19.70;55.30;;;;;;5073004;28;20433;-87
2021/04/29 15:21:48;;;;;;;2.47;1.83;;;19.60;55.40;;;;;;5068247;28;20473;-86
2021/04/29 15:24:14;;;;;;;2.00;1.90;;;19.40;57.40;;;;;;5061709;28;20444;-88
2021/04/29 15:26:40;;;;;;;1.83;1.60;;;19.10;58.50;;;;;;5063014;28;20489;-89
2021/04/29 15:29:08;;;;;;;3.90;2.83;;;18.90;58.90;;;;;;5060144;28;20451;-88
2021/04/29 15:31:34;;;;;;;4.60;3.03;;;18.80;58.30;;;;;;5063535;28;20439;-85
2021/04/29 15:34:00;;;;;;;4.30;1.90;;;18.50;56.90;;;;;;5076634;28;20460;-87
2021/04/29 15:36:53;;;;;;;1.73;1.43;;;18.40;57.30;;;;;;5074599;28;20468;-86
2021/04/29 15:39:21;;;;;;;1.87;1.70;;;18.40;57.50;;;;;;5065524;28;20460;-87
2021/04/29 15:45:15;;;;;;;3.37;2.33;;;18.50;55.60;;;;;;5034176;28;20832;-88
2021/04/29 15:51:54;;;;;;;3.00;2.23;;;18.80;54.90;;;;;;5034848;28;20429;-91
2021/04/29 15:55:13;;;;;;;1.87;1.67;;;18.90;54.00;;;;;;4971684;28;20467;-87
2021/04/29 15:57:53;;;;;;;2.90;2.27;;;19.00;54.20;;;;;;4990937;28;20459;-87
2021/04/29 16:00:24;;;;;;;4.23;2.97;;;19.10;57.10;;;;;;4994972;28;20451;-87
2021/04/29 16:03:11;;;;;;;2.67;2.47;;;18.90;58.90;;;;;;4997069;28;20455;-88
2021/04/29 16:08:48;;;;;;;2.47;2.27;;;18.80;60.00;;;;;;5059091;28;20490;-86
2021/04/29 16:11:14;;;;;;;2.50;2.30;;;18.80;60.00;;;;;;5061384;28;20826;-87
2021/04/29 16:13:59;;;;;;;3.10;2.50;;;18.70;59.70;;;;;;5059779;28;20433;-87
2021/04/29 16:16:26;;;;;;;2.57;2.10;;;18.70;60.00;;;;;;5056543;28;20460;-87
2021/04/29 16:18:59;;;;;;;3.07;2.07;;;18.60;59.80;;;;;;5056887;28;20457;-87
2021/04/29 16:21:52;;;;;;;;;;;;;;;;;;;;;
2021/04/29 16:24:30;;;;;;;2.47;2.10;;;18.40;60.00;;;;;;5063888;28;20508;-88
2021/04/29 16:27:25;;;;;;;2.70;2.50;;;18.30;60.70;;;;;;5061869;28;20652;-88
2021/04/29 16:30:05;;;;;;;4.33;3.57;;;18.10;61.40;;;;;;5074646;28;20457;-87
2021/04/29 16:33:01;;;;;;;;;;;;;;;;;;;;;
2021/04/29 16:35:58;;;;;;;2.53;2.30;;;17.90;62.20;;;;;;5059579;28;20457;-89
2021/04/29 16:38:40;;;;;;;2.87;2.63;;;17.90;62.60;;;;;;5056890;28;20486;-86
2021/04/29 16:41:31;;;;;;;3.03;2.73;;;17.80;62.60;;;;;;5062382;28;20414;-85
2021/04/29 16:44:36;;;;;;;2.73;2.47;;;17.80;63.10;;;;;;5071924;28;20445;-86
2021/04/29 16:47:02;;;;;;;3.63;3.13;;;17.70;62.50;;;;;;5062824;28;20507;-88
2021/04/29 16:49:38;;;;;;;3.10;2.50;;;17.80;62.60;;;;;;5060799;28;20487;-86
2021/04/29 16:52:32;;;;;;;5.73;2.17;;;17.80;62.80;;;;;;5058625;28;20448;-87
2021/04/29 16:55:01;;;;;;;1.87;1.77;;;17.80;61.90;;;;;;5059235;28;20452;-87
2021/04/29 16:57:53;;;;;;;4.80;2.47;;;17.80;60.70;;;;;;5059916;28;20535;-88
2021/04/29 17:00:21;;;;;;;2.73;2.30;;;17.90;59.70;;;;;;5059657;28;20871;-88
2021/04/29 17:03:10;;;;;;;1.97;1.77;;;17.90;59.00;;;;;;5061876;28;20907;-88
2021/04/29 17:05:37;;;;;;;1.87;1.77;;;17.90;57.10;;;;;;5056949;28;20444;-87
2021/04/29 17:08:08;;;;;;;1.30;1.20;;;17.90;56.30;;;;;;5059541;28;20488;-87
2021/04/29 17:10:48;;;;;;;;;;;;;;;;;;;;;
2021/04/29 17:13:31;;;;;;;6.93;2.63;;;17.90;55.50;;;;;;5069115;28;20432;-87
2021/04/29 17:15:58;;;;;;;1.60;1.50;;;17.70;54.60;;;;;;5056646;28;20521;-87
2021/04/29 17:18:24;;;;;;;9.83;4.33;;;17.60;54.10;;;;;;5061056;28;20449;-87
2021/04/29 17:20:54;;;;;;;3.40;3.07;;;17.60;54.80;;;;;;5060545;28;20472;-88
2021/04/29 17:23:25;;;;;;;2.03;1.87;;;17.50;54.90;;;;;;5062894;28;20444;-88
2021/04/29 17:25:51;;;;;;;2.90;2.43;;;17.40;54.90;;;;;;5063868;28;20543;-88
2021/04/29 17:28:20;;;;;;;1.87;1.63;;;17.40;54.80;;;;;;5067584;28;20564;-88
2021/04/29 17:30:46;;;;;;;2.13;1.70;;;17.40;54.90;;;;;;5058231;28;20461;-87
2021/04/29 17:33:12;;;;;;;1.80;1.53;;;17.40;55.10;;;;;;5059291;28;20457;-87
2021/04/29 17:35:41;;;;;;;3.73;1.90;;;17.30;55.40;;;;;;5076934;28;20464;-85
2021/04/29 17:41:35;;;;;;;2.23;1.90;;;17.10;56.30;;;;;;4965506;28;20420;-86
2021/04/29 17:44:30;;;;;;;2.77;1.70;;;17.00;57.00;;;;;;5057297;28;20789;-87
2021/04/29 17:47:20;;;;;;;1.73;1.63;;;16.90;58.00;;;;;;5029483;28;20512;-87
2021/04/29 17:50:31;;;;;;;2.80;2.60;;;16.80;58.30;;;;;;5057412;28;20440;-86
2021/04/29 17:56:24;;;;;;;4.00;2.80;;;16.70;59.00;;;;;;5032876;28;20505;-85
2021/04/29 17:59:08;;;;;;;3.17;2.90;;;16.70;60.20;;;;;;5057447;28;20443;-85
2021/04/29 18:01:41;;;;;;;6.20;4.23;;;16.60;59.40;;;;;;5058276;28;20968;-85
2021/04/29 18:04:33;;;;;;;3.07;2.80;;;16.60;59.30;;;;;;5059916;28;20449;-83
2021/04/29 18:07:32;;;;;;;3.30;2.80;;;16.50;59.50;;;;;;5060971;28;20480;-83
2021/04/29 18:09:58;;;;;;;5.00;4.50;;;16.40;60.00;;;;;;5072125;28;20425;-84
2021/04/29 18:12:28;;;;;;;7.20;3.60;;;16.40;60.00;;;;;;5063803;28;20437;-86
2021/04/29 18:15:03;;;;;;;4.20;2.27;;;16.30;59.70;;;;;;5061532;28;20452;-85
2021/04/29 18:17:30;;;;;;;3.93;3.30;;;16.20;59.80;;;;;;5055491;28;20486;-85
2021/04/29 18:19:56;;;;;;;3.77;2.90;;;16.10;60.00;;;;;;5055581;28;20520;-85
2021/04/29 18:22:23;;;;;;;3.93;3.23;;;16.00;60.50;;;;;;5056009;28;20499;-82
2021/04/29 18:24:49;;;;;;;6.80;4.33;;;15.90;60.90;;;;;;5062181;28;20460;-85
2021/04/29 18:27:16;;;;;;;4.67;3.37;;;15.90;61.40;;;;;;5057063;28;20837;-83
2021/04/29 18:29:43;;;;;;;7.50;3.87;;;15.90;60.60;;;;;;5064347;28;20459;-84
2021/04/29 18:32:09;;;;;;;6.20;4.10;;;15.80;61.20;;;;;;5058317;28;20445;-84
2021/04/29 18:34:36;;;;;;;3.57;3.10;;;15.80;60.90;;;;;;5055905;28;20468;-86
2021/04/29 18:37:02;;;;;;;12.47;7.40;;;15.80;61.40;;;;;;5058936;28;20445;-85
2021/04/29 18:39:29;;;;;;;9.83;5.93;;;15.70;61.80;;;;;;5058396;28;20519;-84
2021/04/29 18:41:55;;;;;;;9.20;5.07;;;15.70;62.30;;;;;;5061057;28;20475;-83
2021/04/29 18:44:22;;;;;;;5.87;3.87;;;15.60;62.10;;;;;;5056617;28;20498;-86
2021/04/29 18:46:50;;;;;;;6.07;3.67;;;15.60;62.60;;;;;;5060858;28;20468;-86
2021/04/29 18:49:17;;;;;;;5.53;3.90;;;15.40;63.10;;;;;;5077817;28;20420;-87
2021/04/29 18:51:43;;;;;;;5.43;3.90;;;15.40;63.30;;;;;;5075656;28;20441;-86
2021/04/29 18:54:09;;;;;;;3.60;2.70;;;15.50;62.40;;;;;;5065024;28;20470;-84